sensor_id;sensor_type;location;lat;lon;timestamp;temperature;humidity
19536;HTU21D;9913;51.168;4.124;2022-10-16T00:01:23;13.25;78.43
19536;HTU21D;9913;51.168;4.124;2022-10-16T00:03:52;13.14;78.70
19536;HTU21D;9913;51.168;4.124;2022-10-16T00:06:21;13.10;78.99
19536;HTU21D;9913;51.168;4.124;2022-10-16T00:08:50;13.08;78.84
19536;HTU21D;9913;51.168;4.124;2022-10-16T00:11:20;13.10;79.18
19536;HTU21D;9913;51.168;4.124;2022-10-16T00:13:51;13.14;79.17
19536;HTU21D;9913;51.168;4.124;2022-10-16T00:16:20;13.12;79.15
19536;HTU21D;9913;51.168;4.124;2022-10-16T00:18:48;13.12;78.94
19536;HTU21D;9913;51.168;4.124;2022-10-16T00:21:19;13.12;78.99
19536;HTU21D;9913;51.168;4.124;2022-10-16T00:24:08;13.01;79.12
19536;HTU21D;9913;51.168;4.124;2022-10-16T00:26:37;12.93;79.43
19536;HTU21D;9913;51.168;4.124;2022-10-16T00:29:06;12.91;79.40
19536;HTU21D;9913;51.168;4.124;2022-10-16T00:31:35;12.88;79.44
19536;HTU21D;9913;51.168;4.124;2022-10-16T00:34:03;12.79;79.61
19536;HTU21D;9913;51.168;4.124;2022-10-16T00:36:33;12.76;79.73
19536;HTU21D;9913;51.168;4.124;2022-10-16T00:39:01;12.74;79.91
19536;HTU21D;9913;51.168;4.124;2022-10-16T00:41:32;12.67;80.04
19536;HTU21D;9913;51.168;4.124;2022-10-16T00:44:02;12.67;80.00
19536;HTU21D;9913;51.168;4.124;2022-10-16T00:46:38;12.63;80.07
19536;HTU21D;9913;51.168;4.124;2022-10-16T00:49:09;12.60;80.24
19536;HTU21D;9913;51.168;4.124;2022-10-16T00:51:42;12.61;80.23
19536;HTU21D;9913;51.168;4.124;2022-10-16T00:54:14;12.57;80.43
19536;HTU21D;9913;51.168;4.124;2022-10-16T00:56:44;12.57;80.51
19536;HTU21D;9913;51.168;4.124;2022-10-16T00:59:16;12.57;80.40
19536;HTU21D;9913;51.168;4.124;2022-10-16T01:01:45;12.51;80.55
19536;HTU21D;9913;51.168;4.124;2022-10-16T01:04:13;12.51;80.62
19536;HTU21D;9913;51.168;4.124;2022-10-16T01:06:49;12.49;80.49
19536;HTU21D;9913;51.168;4.124;2022-10-16T01:09:23;12.55;80.55
19536;HTU21D;9913;51.168;4.124;2022-10-16T01:12:03;12.50;80.54
19536;HTU21D;9913;51.168;4.124;2022-10-16T01:14:40;12.49;80.63
19536;HTU21D;9913;51.168;4.124;2022-10-16T01:17:13;12.52;80.56
19536;HTU21D;9913;51.168;4.124;2022-10-16T01:19:57;12.55;80.45
19536;HTU21D;9913;51.168;4.124;2022-10-16T01:22:37;12.49;80.52
19536;HTU21D;9913;51.168;4.124;2022-10-16T01:25:11;12.47;80.58
19536;HTU21D;9913;51.168;4.124;2022-10-16T01:27:45;12.43;80.69
19536;HTU21D;9913;51.168;4.124;2022-10-16T01:30:20;12.41;80.85
19536;HTU21D;9913;51.168;4.124;2022-10-16T01:32:50;12.44;80.77
19536;HTU21D;9913;51.168;4.124;2022-10-16T01:35:23;12.41;80.76
19536;HTU21D;9913;51.168;4.124;2022-10-16T01:37:57;12.37;80.97
19536;HTU21D;9913;51.168;4.124;2022-10-16T01:40:28;12.38;80.99
19536;HTU21D;9913;51.168;4.124;2022-10-16T01:43:01;12.34;81.02
19536;HTU21D;9913;51.168;4.124;2022-10-16T01:45:31;12.33;81.21
19536;HTU21D;9913;51.168;4.124;2022-10-16T01:48:02;12.27;81.17
19536;HTU21D;9913;51.168;4.124;2022-10-16T01:50:33;12.30;81.28
19536;HTU21D;9913;51.168;4.124;2022-10-16T01:53:03;12.34;81.24
19536;HTU21D;9913;51.168;4.124;2022-10-16T01:55:36;12.25;81.30
19536;HTU21D;9913;51.168;4.124;2022-10-16T01:58:08;12.38;81.31
19536;HTU21D;9913;51.168;4.124;2022-10-16T02:00:43;12.41;81.14
19536;HTU21D;9913;51.168;4.124;2022-10-16T02:03:14;12.43;81.14
19536;HTU21D;9913;51.168;4.124;2022-10-16T02:05:46;12.43;80.94
19536;HTU21D;9913;51.168;4.124;2022-10-16T02:08:15;12.41;80.99
19536;HTU21D;9913;51.168;4.124;2022-10-16T02:10:43;12.40;81.14
19536;HTU21D;9913;51.168;4.124;2022-10-16T02:13:17;12.42;81.17
19536;HTU21D;9913;51.168;4.124;2022-10-16T02:15:45;12.40;81.13
19536;HTU21D;9913;51.168;4.124;2022-10-16T02:18:14;12.40;81.14
19536;HTU21D;9913;51.168;4.124;2022-10-16T02:20:48;12.40;81.14
19536;HTU21D;9913;51.168;4.124;2022-10-16T02:23:27;12.43;81.08
19536;HTU21D;9913;51.168;4.124;2022-10-16T02:25:59;12.42;81.09
19536;HTU21D;9913;51.168;4.124;2022-10-16T02:28:34;12.49;81.12
19536;HTU21D;9913;51.168;4.124;2022-10-16T02:31:08;12.45;80.98
19536;HTU21D;9913;51.168;4.124;2022-10-16T02:33:40;12.43;81.04
19536;HTU21D;9913;51.168;4.124;2022-10-16T02:36:09;12.42;81.04
19536;HTU21D;9913;51.168;4.124;2022-10-16T02:38:38;12.40;81.14
19536;HTU21D;9913;51.168;4.124;2022-10-16T02:41:07;12.44;81.14
19536;HTU21D;9913;51.168;4.124;2022-10-16T02:43:38;12.48;80.98
19536;HTU21D;9913;51.168;4.124;2022-10-16T02:46:06;12.45;81.00
19536;HTU21D;9913;51.168;4.124;2022-10-16T02:48:34;12.48;81.01
19536;HTU21D;9913;51.168;4.124;2022-10-16T02:51:03;12.44;81.05
19536;HTU21D;9913;51.168;4.124;2022-10-16T02:53:31;12.47;80.94
19536;HTU21D;9913;51.168;4.124;2022-10-16T02:55:59;12.48;80.85
19536;HTU21D;9913;51.168;4.124;2022-10-16T02:58:27;12.46;81.07
19536;HTU21D;9913;51.168;4.124;2022-10-16T03:00:57;12.47;81.01
19536;HTU21D;9913;51.168;4.124;2022-10-16T03:03:28;12.50;80.96
19536;HTU21D;9913;51.168;4.124;2022-10-16T03:05:56;12.52;80.81
19536;HTU21D;9913;51.168;4.124;2022-10-16T03:08:24;12.51;80.85
19536;HTU21D;9913;51.168;4.124;2022-10-16T03:10:52;12.50;80.76
19536;HTU21D;9913;51.168;4.124;2022-10-16T03:13:21;12.45;80.94
19536;HTU21D;9913;51.168;4.124;2022-10-16T03:15:49;12.46;80.93
19536;HTU21D;9913;51.168;4.124;2022-10-16T03:18:19;12.51;80.77
19536;HTU21D;9913;51.168;4.124;2022-10-16T03:20:47;12.47;80.80
19536;HTU21D;9913;51.168;4.124;2022-10-16T03:23:15;12.50;80.83
19536;HTU21D;9913;51.168;4.124;2022-10-16T03:25:44;12.50;80.72
19536;HTU21D;9913;51.168;4.124;2022-10-16T03:28:14;12.49;80.84
19536;HTU21D;9913;51.168;4.124;2022-10-16T03:30:43;12.48;80.81
19536;HTU21D;9913;51.168;4.124;2022-10-16T03:33:11;12.49;80.81
19536;HTU21D;9913;51.168;4.124;2022-10-16T03:35:41;12.47;80.80
19536;HTU21D;9913;51.168;4.124;2022-10-16T03:38:09;12.46;80.91
19536;HTU21D;9913;51.168;4.124;2022-10-16T03:40:37;12.40;80.98
19536;HTU21D;9913;51.168;4.124;2022-10-16T03:43:06;12.41;81.02
19536;HTU21D;9913;51.168;4.124;2022-10-16T03:45:34;12.36;81.17
19536;HTU21D;9913;51.168;4.124;2022-10-16T03:48:02;12.38;81.23
19536;HTU21D;9913;51.168;4.124;2022-10-16T03:50:31;12.34;81.43
19536;HTU21D;9913;51.168;4.124;2022-10-16T03:53:00;12.34;81.43
19536;HTU21D;9913;51.168;4.124;2022-10-16T03:55:28;12.36;81.18
19536;HTU21D;9913;51.168;4.124;2022-10-16T03:57:57;12.35;81.19
19536;HTU21D;9913;51.168;4.124;2022-10-16T04:00:25;12.32;81.12
19536;HTU21D;9913;51.168;4.124;2022-10-16T04:02:53;12.29;81.39
19536;HTU21D;9913;51.168;4.124;2022-10-16T04:05:22;12.23;81.54
19536;HTU21D;9913;51.168;4.124;2022-10-16T04:07:50;12.26;81.61
19536;HTU21D;9913;51.168;4.124;2022-10-16T04:10:19;12.26;81.45
19536;HTU21D;9913;51.168;4.124;2022-10-16T04:12:48;12.25;81.62
19536;HTU21D;9913;51.168;4.124;2022-10-16T04:15:16;12.27;81.55
19536;HTU21D;9913;51.168;4.124;2022-10-16T04:17:44;12.22;81.46
19536;HTU21D;9913;51.168;4.124;2022-10-16T04:20:12;12.27;81.44
19536;HTU21D;9913;51.168;4.124;2022-10-16T04:22:41;12.25;81.49
19536;HTU21D;9913;51.168;4.124;2022-10-16T04:25:09;12.22;81.54
19536;HTU21D;9913;51.168;4.124;2022-10-16T04:27:39;12.23;81.43
19536;HTU21D;9913;51.168;4.124;2022-10-16T04:30:12;12.25;81.62
19536;HTU21D;9913;51.168;4.124;2022-10-16T04:32:40;12.23;81.57
19536;HTU21D;9913;51.168;4.124;2022-10-16T04:35:08;12.21;81.62
19536;HTU21D;9913;51.168;4.124;2022-10-16T04:37:37;12.21;81.56
19536;HTU21D;9913;51.168;4.124;2022-10-16T04:40:06;12.16;81.73
19536;HTU21D;9913;51.168;4.124;2022-10-16T04:42:34;12.15;81.80
19536;HTU21D;9913;51.168;4.124;2022-10-16T04:45:05;12.13;81.96
19536;HTU21D;9913;51.168;4.124;2022-10-16T04:47:39;12.11;81.99
19536;HTU21D;9913;51.168;4.124;2022-10-16T04:50:08;12.08;82.04
19536;HTU21D;9913;51.168;4.124;2022-10-16T04:52:36;12.07;82.10
19536;HTU21D;9913;51.168;4.124;2022-10-16T04:55:05;12.07;82.23
19536;HTU21D;9913;51.168;4.124;2022-10-16T04:57:33;12.07;82.20
19536;HTU21D;9913;51.168;4.124;2022-10-16T05:00:05;12.06;82.22
19536;HTU21D;9913;51.168;4.124;2022-10-16T05:02:33;12.04;82.27
19536;HTU21D;9913;51.168;4.124;2022-10-16T05:05:02;12.08;82.23
19536;HTU21D;9913;51.168;4.124;2022-10-16T05:07:30;12.05;82.23
19536;HTU21D;9913;51.168;4.124;2022-10-16T05:09:58;12.08;82.19
19536;HTU21D;9913;51.168;4.124;2022-10-16T05:12:26;12.02;82.26
19536;HTU21D;9913;51.168;4.124;2022-10-16T05:14:55;12.02;82.34
19536;HTU21D;9913;51.168;4.124;2022-10-16T05:17:27;12.00;82.42
19536;HTU21D;9913;51.168;4.124;2022-10-16T05:19:55;11.98;82.47
19536;HTU21D;9913;51.168;4.124;2022-10-16T05:22:23;11.96;82.41
19536;HTU21D;9913;51.168;4.124;2022-10-16T05:24:52;12.01;82.43
19536;HTU21D;9913;51.168;4.124;2022-10-16T05:27:20;12.03;82.36
19536;HTU21D;9913;51.168;4.124;2022-10-16T05:29:49;12.00;82.24
19536;HTU21D;9913;51.168;4.124;2022-10-16T05:32:18;11.99;82.37
19536;HTU21D;9913;51.168;4.124;2022-10-16T05:34:48;11.91;82.60
19536;HTU21D;9913;51.168;4.124;2022-10-16T05:37:16;11.89;82.68
19536;HTU21D;9913;51.168;4.124;2022-10-16T05:39:44;11.85;82.83
19536;HTU21D;9913;51.168;4.124;2022-10-16T05:42:13;11.97;82.79
19536;HTU21D;9913;51.168;4.124;2022-10-16T05:44:41;12.05;82.55
19536;HTU21D;9913;51.168;4.124;2022-10-16T05:47:09;12.07;82.31
19536;HTU21D;9913;51.168;4.124;2022-10-16T05:49:38;12.12;82.22
19536;HTU21D;9913;51.168;4.124;2022-10-16T05:52:08;12.14;82.13
19536;HTU21D;9913;51.168;4.124;2022-10-16T05:54:37;12.19;82.06
19536;HTU21D;9913;51.168;4.124;2022-10-16T05:57:05;12.22;81.94
19536;HTU21D;9913;51.168;4.124;2022-10-16T05:59:33;12.26;81.87
19536;HTU21D;9913;51.168;4.124;2022-10-16T06:02:01;12.28;81.72
19536;HTU21D;9913;51.168;4.124;2022-10-16T06:04:30;12.31;81.68
19536;HTU21D;9913;51.168;4.124;2022-10-16T06:06:58;12.31;81.70
19536;HTU21D;9913;51.168;4.124;2022-10-16T06:09:29;12.32;81.53
19536;HTU21D;9913;51.168;4.124;2022-10-16T06:11:57;12.28;81.52
19536;HTU21D;9913;51.168;4.124;2022-10-16T06:14:26;12.21;81.72
19536;HTU21D;9913;51.168;4.124;2022-10-16T06:16:54;12.21;81.78
19536;HTU21D;9913;51.168;4.124;2022-10-16T06:19:22;12.14;81.84
19536;HTU21D;9913;51.168;4.124;2022-10-16T06:21:51;12.06;82.07
19536;HTU21D;9913;51.168;4.124;2022-10-16T06:24:19;12.04;82.18
19536;HTU21D;9913;51.168;4.124;2022-10-16T06:26:48;12.00;82.33
19536;HTU21D;9913;51.168;4.124;2022-10-16T06:29:17;12.01;82.50
19536;HTU21D;9913;51.168;4.124;2022-10-16T06:31:45;12.00;82.58
19536;HTU21D;9913;51.168;4.124;2022-10-16T06:34:14;11.98;82.60
19536;HTU21D;9913;51.168;4.124;2022-10-16T06:36:42;12.02;82.55
19536;HTU21D;9913;51.168;4.124;2022-10-16T06:39:10;11.97;82.56
19536;HTU21D;9913;51.168;4.124;2022-10-16T06:41:39;12.03;82.58
19536;HTU21D;9913;51.168;4.124;2022-10-16T06:44:16;12.06;82.41
19536;HTU21D;9913;51.168;4.124;2022-10-16T06:46:44;12.07;82.32
19536;HTU21D;9913;51.168;4.124;2022-10-16T06:49:12;12.08;82.28
19536;HTU21D;9913;51.168;4.124;2022-10-16T06:51:43;12.07;82.29
19536;HTU21D;9913;51.168;4.124;2022-10-16T06:54:11;12.16;82.18
19536;HTU21D;9913;51.168;4.124;2022-10-16T06:56:39;12.22;82.03
19536;HTU21D;9913;51.168;4.124;2022-10-16T06:59:07;12.25;81.88
19536;HTU21D;9913;51.168;4.124;2022-10-16T07:01:37;12.30;81.86
19536;HTU21D;9913;51.168;4.124;2022-10-16T07:04:05;12.37;81.73
19536;HTU21D;9913;51.168;4.124;2022-10-16T07:06:34;12.37;81.63
19536;HTU21D;9913;51.168;4.124;2022-10-16T07:09:04;12.47;81.39
19536;HTU21D;9913;51.168;4.124;2022-10-16T07:11:33;12.57;81.01
19536;HTU21D;9913;51.168;4.124;2022-10-16T07:14:01;12.58;81.09
19536;HTU21D;9913;51.168;4.124;2022-10-16T07:16:31;12.63;81.00
19536;HTU21D;9913;51.168;4.124;2022-10-16T07:19:02;12.69;80.73
19536;HTU21D;9913;51.168;4.124;2022-10-16T07:21:32;12.73;80.72
19536;HTU21D;9913;51.168;4.124;2022-10-16T07:24:03;12.79;80.51
19536;HTU21D;9913;51.168;4.124;2022-10-16T07:26:34;12.84;80.46
19536;HTU21D;9913;51.168;4.124;2022-10-16T07:29:02;12.91;80.20
19536;HTU21D;9913;51.168;4.124;2022-10-16T07:31:31;12.96;80.23
19536;HTU21D;9913;51.168;4.124;2022-10-16T07:34:01;13.03;79.85
19536;HTU21D;9913;51.168;4.124;2022-10-16T07:36:29;13.06;79.92
19536;HTU21D;9913;51.168;4.124;2022-10-16T07:38:57;13.11;79.75
19536;HTU21D;9913;51.168;4.124;2022-10-16T07:41:27;13.17;79.66
19536;HTU21D;9913;51.168;4.124;2022-10-16T07:43:56;13.20;79.66
19536;HTU21D;9913;51.168;4.124;2022-10-16T07:46:27;13.24;79.64
19536;HTU21D;9913;51.168;4.124;2022-10-16T07:48:56;13.33;79.47
19536;HTU21D;9913;51.168;4.124;2022-10-16T07:51:36;13.40;79.41
19536;HTU21D;9913;51.168;4.124;2022-10-16T07:54:05;13.46;79.22
19536;HTU21D;9913;51.168;4.124;2022-10-16T07:56:33;13.53;79.04
19536;HTU21D;9913;51.168;4.124;2022-10-16T07:59:05;13.65;78.78
19536;HTU21D;9913;51.168;4.124;2022-10-16T08:01:33;13.75;78.69
19536;HTU21D;9913;51.168;4.124;2022-10-16T08:04:02;13.93;78.66
19536;HTU21D;9913;51.168;4.124;2022-10-16T08:06:36;14.05;78.29
19536;HTU21D;9913;51.168;4.124;2022-10-16T08:09:05;14.18;77.98
19536;HTU21D;9913;51.168;4.124;2022-10-16T08:11:34;14.26;78.14
19536;HTU21D;9913;51.168;4.124;2022-10-16T08:14:03;14.24;77.92
19536;HTU21D;9913;51.168;4.124;2022-10-16T08:16:31;14.33;78.11
19536;HTU21D;9913;51.168;4.124;2022-10-16T08:18:59;14.35;77.82
19536;HTU21D;9913;51.168;4.124;2022-10-16T08:21:27;14.42;77.98
19536;HTU21D;9913;51.168;4.124;2022-10-16T08:23:57;14.53;77.87
19536;HTU21D;9913;51.168;4.124;2022-10-16T08:26:26;14.52;77.57
19536;HTU21D;9913;51.168;4.124;2022-10-16T08:28:55;14.65;77.86
19536;HTU21D;9913;51.168;4.124;2022-10-16T08:31:24;14.83;77.66
19536;HTU21D;9913;51.168;4.124;2022-10-16T08:33:54;14.85;77.76
19536;HTU21D;9913;51.168;4.124;2022-10-16T08:36:22;14.89;77.20
19536;HTU21D;9913;51.168;4.124;2022-10-16T08:38:50;15.00;77.19
19536;HTU21D;9913;51.168;4.124;2022-10-16T08:45:06;15.04;77.40
19536;HTU21D;9913;51.168;4.124;2022-10-16T08:47:45;15.18;77.28
19536;HTU21D;9913;51.168;4.124;2022-10-16T08:50:21;15.24;77.08
19536;HTU21D;9913;51.168;4.124;2022-10-16T08:52:51;15.40;76.63
19536;HTU21D;9913;51.168;4.124;2022-10-16T08:55:30;15.52;76.95
19536;HTU21D;9913;51.168;4.124;2022-10-16T08:58:01;15.54;76.48
19536;HTU21D;9913;51.168;4.124;2022-10-16T09:00:30;15.36;76.45
19536;HTU21D;9913;51.168;4.124;2022-10-16T09:03:03;15.54;76.53
19536;HTU21D;9913;51.168;4.124;2022-10-16T09:05:57;15.51;76.18
19536;HTU21D;9913;51.168;4.124;2022-10-16T09:08:40;15.82;76.54
19536;HTU21D;9913;51.168;4.124;2022-10-16T09:11:15;15.91;76.53
19536;HTU21D;9913;51.168;4.124;2022-10-16T09:13:53;16.00;76.41
19536;HTU21D;9913;51.168;4.124;2022-10-16T09:16:24;16.11;76.28
19536;HTU21D;9913;51.168;4.124;2022-10-16T09:19:00;16.03;76.44
19536;HTU21D;9913;51.168;4.124;2022-10-16T09:21:34;16.18;75.98
19536;HTU21D;9913;51.168;4.124;2022-10-16T09:24:10;16.41;75.77
19536;HTU21D;9913;51.168;4.124;2022-10-16T09:26:39;16.46;75.61
19536;HTU21D;9913;51.168;4.124;2022-10-16T09:29:11;16.49;75.35
19536;HTU21D;9913;51.168;4.124;2022-10-16T09:31:41;16.52;75.64
19536;HTU21D;9913;51.168;4.124;2022-10-16T09:34:16;16.73;75.12
19536;HTU21D;9913;51.168;4.124;2022-10-16T09:36:46;16.71;75.17
19536;HTU21D;9913;51.168;4.124;2022-10-16T09:39:14;16.86;74.62
19536;HTU21D;9913;51.168;4.124;2022-10-16T09:41:44;17.02;74.57
19536;HTU21D;9913;51.168;4.124;2022-10-16T09:44:20;17.15;74.48
19536;HTU21D;9913;51.168;4.124;2022-10-16T09:47:01;17.07;74.70
19536;HTU21D;9913;51.168;4.124;2022-10-16T09:49:29;16.91;74.77
19536;HTU21D;9913;51.168;4.124;2022-10-16T09:52:05;17.24;74.84
19536;HTU21D;9913;51.168;4.124;2022-10-16T09:54:33;17.54;74.63
19536;HTU21D;9913;51.168;4.124;2022-10-16T09:57:05;17.75;73.61
19536;HTU21D;9913;51.168;4.124;2022-10-16T09:59:46;17.46;73.87
19536;HTU21D;9913;51.168;4.124;2022-10-16T10:02:16;17.35;72.87
19536;HTU21D;9913;51.168;4.124;2022-10-16T10:04:49;16.90;74.57
19536;HTU21D;9913;51.168;4.124;2022-10-16T10:07:20;16.69;74.25
19536;HTU21D;9913;51.168;4.124;2022-10-16T10:09:49;16.60;74.99
19536;HTU21D;9913;51.168;4.124;2022-10-16T10:12:20;16.49;74.84
19536;HTU21D;9913;51.168;4.124;2022-10-16T10:14:55;16.21;75.83
19536;HTU21D;9913;51.168;4.124;2022-10-16T10:17:25;16.02;76.47
19536;HTU21D;9913;51.168;4.124;2022-10-16T10:19:56;16.29;75.34
19536;HTU21D;9913;51.168;4.124;2022-10-16T10:22:30;16.82;75.32
19536;HTU21D;9913;51.168;4.124;2022-10-16T10:25:42;17.55;74.94
19536;HTU21D;9913;51.168;4.124;2022-10-16T10:28:50;17.41;73.96
19536;HTU21D;9913;51.168;4.124;2022-10-16T10:31:27;17.14;73.63
19536;HTU21D;9913;51.168;4.124;2022-10-16T10:34:04;17.38;74.09
19536;HTU21D;9913;51.168;4.124;2022-10-16T10:36:38;18.11;73.71
19536;HTU21D;9913;51.168;4.124;2022-10-16T10:39:11;18.61;75.55
19536;HTU21D;9913;51.168;4.124;2022-10-16T10:44:53;18.88;73.61
19536;HTU21D;9913;51.168;4.124;2022-10-16T10:47:32;18.35;70.97
19536;HTU21D;9913;51.168;4.124;2022-10-16T10:50:12;18.81;72.41
19536;HTU21D;9913;51.168;4.124;2022-10-16T10:52:49;18.74;71.12
19536;HTU21D;9913;51.168;4.124;2022-10-16T10:55:24;18.71;72.04
19536;HTU21D;9913;51.168;4.124;2022-10-16T10:58:35;19.05;71.25
19536;HTU21D;9913;51.168;4.124;2022-10-16T11:01:09;18.83;71.94
19536;HTU21D;9913;51.168;4.124;2022-10-16T11:03:55;18.18;70.94
19536;HTU21D;9913;51.168;4.124;2022-10-16T11:06:29;17.77;72.80
19536;HTU21D;9913;51.168;4.124;2022-10-16T11:09:03;17.51;72.38
19536;HTU21D;9913;51.168;4.124;2022-10-16T11:11:40;17.94;72.32
19536;HTU21D;9913;51.168;4.124;2022-10-16T11:14:14;18.59;72.95
19536;HTU21D;9913;51.168;4.124;2022-10-16T11:16:45;18.73;71.25
19536;HTU21D;9913;51.168;4.124;2022-10-16T11:19:25;18.79;72.37
19536;HTU21D;9913;51.168;4.124;2022-10-16T11:22:01;18.78;72.67
19536;HTU21D;9913;51.168;4.124;2022-10-16T11:24:36;18.81;70.77
19536;HTU21D;9913;51.168;4.124;2022-10-16T11:27:09;18.82;71.33
19536;HTU21D;9913;51.168;4.124;2022-10-16T11:29:45;19.08;71.31
19536;HTU21D;9913;51.168;4.124;2022-10-16T11:32:20;19.17;70.71
19536;HTU21D;9913;51.168;4.124;2022-10-16T11:34:55;18.87;70.40
19536;HTU21D;9913;51.168;4.124;2022-10-16T11:37:28;18.33;72.95
19536;HTU21D;9913;51.168;4.124;2022-10-16T11:40:03;17.95;70.78
19536;HTU21D;9913;51.168;4.124;2022-10-16T11:42:43;17.70;72.37
19536;HTU21D;9913;51.168;4.124;2022-10-16T11:45:23;17.81;71.55
19536;HTU21D;9913;51.168;4.124;2022-10-16T11:47:58;18.10;73.08
19536;HTU21D;9913;51.168;4.124;2022-10-16T11:50:34;18.74;70.99
19536;HTU21D;9913;51.168;4.124;2022-10-16T11:53:11;19.38;70.39
19536;HTU21D;9913;51.168;4.124;2022-10-16T11:55:42;19.45;71.39
19536;HTU21D;9913;51.168;4.124;2022-10-16T11:58:20;19.57;69.08
19536;HTU21D;9913;51.168;4.124;2022-10-16T12:00:56;19.77;70.36
19536;HTU21D;9913;51.168;4.124;2022-10-16T12:03:29;19.91;67.93
19536;HTU21D;9913;51.168;4.124;2022-10-16T12:06:11;19.59;68.46
19536;HTU21D;9913;51.168;4.124;2022-10-16T12:08:43;19.38;68.30
19536;HTU21D;9913;51.168;4.124;2022-10-16T12:11:23;19.30;68.69
19536;HTU21D;9913;51.168;4.124;2022-10-16T12:13:52;19.35;70.08
19536;HTU21D;9913;51.168;4.124;2022-10-16T12:16:31;19.37;69.58
19536;HTU21D;9913;51.168;4.124;2022-10-16T12:19:12;19.33;67.77
19536;HTU21D;9913;51.168;4.124;2022-10-16T12:21:44;19.48;67.78
19536;HTU21D;9913;51.168;4.124;2022-10-16T12:24:21;19.20;68.80
19536;HTU21D;9913;51.168;4.124;2022-10-16T12:26:52;19.11;69.87
19536;HTU21D;9913;51.168;4.124;2022-10-16T12:29:26;18.84;69.49
19536;HTU21D;9913;51.168;4.124;2022-10-16T12:31:56;18.69;69.58
19536;HTU21D;9913;51.168;4.124;2022-10-16T12:34:28;18.61;70.96
19536;HTU21D;9913;51.168;4.124;2022-10-16T12:37:09;18.77;70.95
19536;HTU21D;9913;51.168;4.124;2022-10-16T12:39:38;18.96;70.25
19536;HTU21D;9913;51.168;4.124;2022-10-16T12:42:21;19.65;70.16
19536;HTU21D;9913;51.168;4.124;2022-10-16T12:44:51;19.82;66.75
19536;HTU21D;9913;51.168;4.124;2022-10-16T12:47:37;19.82;68.65
19536;HTU21D;9913;51.168;4.124;2022-10-16T12:50:27;19.68;67.01
19536;HTU21D;9913;51.168;4.124;2022-10-16T12:52:59;19.35;67.49
19536;HTU21D;9913;51.168;4.124;2022-10-16T12:55:34;19.07;69.46
19536;HTU21D;9913;51.168;4.124;2022-10-16T12:58:16;18.80;68.70
19536;HTU21D;9913;51.168;4.124;2022-10-16T13:00:54;18.92;69.48
19536;HTU21D;9913;51.168;4.124;2022-10-16T13:03:48;19.07;69.22
19536;HTU21D;9913;51.168;4.124;2022-10-16T13:06:25;19.01;69.70
19536;HTU21D;9913;51.168;4.124;2022-10-16T13:09:14;18.61;69.68
19536;HTU21D;9913;51.168;4.124;2022-10-16T13:12:08;18.26;69.64
19536;HTU21D;9913;51.168;4.124;2022-10-16T13:14:51;18.11;70.01
19536;HTU21D;9913;51.168;4.124;2022-10-16T13:17:25;18.41;71.03
19536;HTU21D;9913;51.168;4.124;2022-10-16T13:20:03;18.68;70.11
19536;HTU21D;9913;51.168;4.124;2022-10-16T13:22:43;19.00;69.36
19536;HTU21D;9913;51.168;4.124;2022-10-16T13:25:28;18.63;69.16
19536;HTU21D;9913;51.168;4.124;2022-10-16T13:27:59;18.49;68.38
19536;HTU21D;9913;51.168;4.124;2022-10-16T13:30:29;18.09;70.51
19536;HTU21D;9913;51.168;4.124;2022-10-16T13:33:01;17.76;69.84
19536;HTU21D;9913;51.168;4.124;2022-10-16T13:35:32;17.66;69.82
19536;HTU21D;9913;51.168;4.124;2022-10-16T13:38:13;17.66;70.48
19536;HTU21D;9913;51.168;4.124;2022-10-16T13:40:51;17.84;71.10
19536;HTU21D;9913;51.168;4.124;2022-10-16T13:43:22;18.02;70.30
19536;HTU21D;9913;51.168;4.124;2022-10-16T13:45:56;18.18;71.13
19536;HTU21D;9913;51.168;4.124;2022-10-16T13:48:25;18.29;71.38
19536;HTU21D;9913;51.168;4.124;2022-10-16T13:51:04;18.50;69.50
19536;HTU21D;9913;51.168;4.124;2022-10-16T13:53:34;18.57;70.68
19536;HTU21D;9913;51.168;4.124;2022-10-16T13:56:09;18.71;70.78
19536;HTU21D;9913;51.168;4.124;2022-10-16T13:58:37;18.86;68.49
19536;HTU21D;9913;51.168;4.124;2022-10-16T14:01:16;18.89;70.32
19536;HTU21D;9913;51.168;4.124;2022-10-16T14:03:45;18.83;70.13
19536;HTU21D;9913;51.168;4.124;2022-10-16T14:06:15;18.83;69.02
19536;HTU21D;9913;51.168;4.124;2022-10-16T14:08:48;18.68;70.26
19536;HTU21D;9913;51.168;4.124;2022-10-16T14:11:22;18.49;69.39
19536;HTU21D;9913;51.168;4.124;2022-10-16T14:13:51;18.35;69.13
19536;HTU21D;9913;51.168;4.124;2022-10-16T14:16:22;18.28;69.75
19536;HTU21D;9913;51.168;4.124;2022-10-16T14:18:56;18.19;70.65
19536;HTU21D;9913;51.168;4.124;2022-10-16T14:21:25;18.61;70.05
19536;HTU21D;9913;51.168;4.124;2022-10-16T14:23:56;18.92;68.89
19536;HTU21D;9913;51.168;4.124;2022-10-16T14:26:27;18.97;68.94
19536;HTU21D;9913;51.168;4.124;2022-10-16T14:29:09;19.15;68.42
19536;HTU21D;9913;51.168;4.124;2022-10-16T14:31:38;19.20;68.61
19536;HTU21D;9913;51.168;4.124;2022-10-16T14:34:23;18.91;69.70
19536;HTU21D;9913;51.168;4.124;2022-10-16T14:36:52;18.52;69.78
19536;HTU21D;9913;51.168;4.124;2022-10-16T14:39:22;18.21;69.68
19536;HTU21D;9913;51.168;4.124;2022-10-16T14:41:54;18.07;70.64
19536;HTU21D;9913;51.168;4.124;2022-10-16T14:44:28;17.85;70.09
19536;HTU21D;9913;51.168;4.124;2022-10-16T14:46:57;17.85;70.48
19536;HTU21D;9913;51.168;4.124;2022-10-16T14:49:27;17.80;71.12
19536;HTU21D;9913;51.168;4.124;2022-10-16T14:51:55;17.73;71.03
19536;HTU21D;9913;51.168;4.124;2022-10-16T14:54:23;17.63;72.10
19536;HTU21D;9913;51.168;4.124;2022-10-16T14:56:57;17.59;71.56
19536;HTU21D;9913;51.168;4.124;2022-10-16T14:59:28;17.46;72.45
19536;HTU21D;9913;51.168;4.124;2022-10-16T15:01:58;17.44;71.95
19536;HTU21D;9913;51.168;4.124;2022-10-16T15:04:26;17.43;71.06
19536;HTU21D;9913;51.168;4.124;2022-10-16T15:06:57;17.40;71.48
19536;HTU21D;9913;51.168;4.124;2022-10-16T15:09:25;17.34;71.59
19536;HTU21D;9913;51.168;4.124;2022-10-16T15:11:55;17.30;71.44
19536;HTU21D;9913;51.168;4.124;2022-10-16T15:14:23;17.26;72.32
19536;HTU21D;9913;51.168;4.124;2022-10-16T15:16:51;17.25;72.09
19536;HTU21D;9913;51.168;4.124;2022-10-16T15:19:20;17.30;70.71
19536;HTU21D;9913;51.168;4.124;2022-10-16T15:21:51;17.18;70.97
19536;HTU21D;9913;51.168;4.124;2022-10-16T15:24:20;17.15;71.55
19536;HTU21D;9913;51.168;4.124;2022-10-16T15:26:48;17.11;72.39
19536;HTU21D;9913;51.168;4.124;2022-10-16T15:29:18;17.07;72.52
19536;HTU21D;9913;51.168;4.124;2022-10-16T15:31:46;16.93;72.52
19536;HTU21D;9913;51.168;4.124;2022-10-16T15:34:15;16.87;73.22
19536;HTU21D;9913;51.168;4.124;2022-10-16T15:36:45;16.84;73.26
19536;HTU21D;9913;51.168;4.124;2022-10-16T15:39:16;16.76;74.33
19536;HTU21D;9913;51.168;4.124;2022-10-16T15:41:45;16.79;74.09
19536;HTU21D;9913;51.168;4.124;2022-10-16T15:44:19;16.85;73.01
19536;HTU21D;9913;51.168;4.124;2022-10-16T15:46:48;16.92;72.18
19536;HTU21D;9913;51.168;4.124;2022-10-16T15:49:16;16.85;72.24
19536;HTU21D;9913;51.168;4.124;2022-10-16T15:51:45;16.75;72.94
19536;HTU21D;9913;51.168;4.124;2022-10-16T15:54:14;16.77;73.08
19536;HTU21D;9913;51.168;4.124;2022-10-16T15:56:42;16.82;72.60
19536;HTU21D;9913;51.168;4.124;2022-10-16T15:59:12;16.84;72.55
19536;HTU21D;9913;51.168;4.124;2022-10-16T16:01:42;16.75;72.58
19536;HTU21D;9913;51.168;4.124;2022-10-16T16:04:11;16.75;72.64
19536;HTU21D;9913;51.168;4.124;2022-10-16T16:06:59;16.78;72.44